Time;durP1;ratioP1;P1;durP2;ratioP2;P2;SDS_P1;SDS_P2;PMS_P1;PMS_P2;Temp;Humidity;BMP_temperature;BMP_pressure;BME280_temperature;BME280_humidity;BME280_pressure;Samples;Min_cycle;Max_cycle;Signal;HPM_P1;HPM_P2
2022/07/31 00:02:20;;;;;;;8.23;1.95;;;19.10;99.90;;;;;;5051298;28;20456;-72
2022/07/31 00:04:46;;;;;;;3.38;1.90;;;19.00;99.90;;;;;;5062920;28;20071;-73
2022/07/31 00:07:11;;;;;;;7.20;2.10;;;19.10;99.90;;;;;;5057318;28;20052;-73
2022/07/31 00:09:37;;;;;;;5.22;1.80;;;19.00;99.90;;;;;;5063082;28;20040;-72
2022/07/31 00:12:04;;;;;;;4.63;1.80;;;19.00;99.90;;;;;;5062315;28;20125;-73
2022/07/31 00:14:29;;;;;;;5.68;1.90;;;19.00;99.90;;;;;;5061190;28;20882;-73
2022/07/31 00:16:56;;;;;;;4.68;2.10;;;19.00;99.90;;;;;;5062949;28;20113;-76
2022/07/31 00:19:22;;;;;;;6.22;2.10;;;19.00;99.90;;;;;;5060269;28;20056;-73
2022/07/31 00:21:47;;;;;;;7.65;2.20;;;19.00;99.90;;;;;;5061357;28;20032;-73
2022/07/31 00:24:13;;;;;;;5.43;2.20;;;19.00;99.90;;;;;;5066749;28;20044;-74
2022/07/31 00:26:39;;;;;;;8.55;2.08;;;19.00;99.90;;;;;;5044405;28;20036;-72
2022/07/31 00:29:05;;;;;;;3.75;2.05;;;18.90;99.90;;;;;;5060204;28;20048;-73
2022/07/31 00:31:33;;;;;;;6.55;2.38;;;18.90;99.90;;;;;;5059036;28;20028;-74
2022/07/31 00:33:59;;;;;;;4.45;2.10;;;18.90;99.90;;;;;;5042666;28;22973;-72
2022/07/31 00:36:25;;;;;;;4.15;2.33;;;18.90;99.90;;;;;;5055284;28;20048;-72
2022/07/31 00:38:50;;;;;;;5.25;1.95;;;18.90;99.90;;;;;;5059281;28;20123;-72
2022/07/31 00:41:16;;;;;;;3.25;2.03;;;18.90;99.90;;;;;;5048924;28;20453;-73
2022/07/31 00:43:41;;;;;;;4.28;1.98;;;18.90;99.90;;;;;;5060902;28;20048;-74
2022/07/31 00:46:07;;;;;;;5.60;2.10;;;18.90;99.90;;;;;;5064517;28;20041;-73
2022/07/31 00:48:34;;;;;;;4.03;2.25;;;18.90;99.90;;;;;;5060419;28;20371;-72
2022/07/31 00:50:59;;;;;;;4.95;2.10;;;18.80;99.90;;;;;;5057791;28;20847;-75
2022/07/31 00:53:25;;;;;;;3.90;2.08;;;18.80;99.90;;;;;;5059198;28;20080;-71
2022/07/31 00:55:51;;;;;;;3.75;2.00;;;18.70;99.90;;;;;;5040985;28;20173;-73
2022/07/31 00:58:16;;;;;;;9.00;2.28;;;18.70;99.90;;;;;;5061195;28;21639;-75
2022/07/31 01:00:42;;;;;;;3.08;1.88;;;18.70;99.90;;;;;;5063947;28;20045;-74
2022/07/31 01:03:45;;;;;;;10.27;2.75;;;18.70;99.90;;;;;;5063437;28;20067;-72
2022/07/31 01:06:12;;;;;;;5.63;2.35;;;18.70;99.90;;;;;;5061033;28;20045;-71
2022/07/31 01:08:38;;;;;;;7.30;2.63;;;18.70;99.90;;;;;;5060343;28;20074;-72
2022/07/31 01:11:11;;;;;;;5.43;2.28;;;18.60;99.90;;;;;;5045385;28;20113;-72
2022/07/31 01:13:56;;;;;;;4.65;2.13;;;18.60;99.90;;;;;;5062430;28;20087;-72
2022/07/31 01:16:25;;;;;;;;;;;18.60;99.90;;;;;;5057827;28;20074;-72
2022/07/31 01:18:54;;;;;;;6.32;2.33;;;18.60;99.90;;;;;;5044513;28;19932;-73
2022/07/31 01:21:27;;;;;;;9.25;2.10;;;18.60;99.90;;;;;;5060353;28;20044;-74
2022/07/31 01:24:17;;;;;;;7.15;2.30;;;18.60;99.90;;;;;;5060434;28;20040;-74
2022/07/31 01:26:55;;;;;;;6.55;2.42;;;18.60;99.90;;;;;;5043057;28;20121;-72
2022/07/31 01:29:48;;;;;;;4.70;2.30;;;18.60;99.90;;;;;;5061524;28;20085;-74
2022/07/31 01:32:20;;;;;;;5.22;2.72;;;18.50;99.90;;;;;;5057051;28;20036;-71
2022/07/31 01:34:51;;;;;;;10.77;2.78;;;18.50;99.90;;;;;;5060148;28;20044;-74
2022/07/31 01:37:29;;;;;;;7.28;2.80;;;18.50;99.90;;;;;;5055129;28;20140;-71
2022/07/31 01:40:09;;;;;;;4.13;2.40;;;18.50;99.90;;;;;;5058944;28;20492;-75
2022/07/31 01:42:38;;;;;;;8.10;2.63;;;18.50;99.90;;;;;;5054708;28;20040;-71
2022/07/31 01:45:06;;;;;;;5.55;2.30;;;18.50;99.90;;;;;;5044720;28;20037;-75
2022/07/31 01:47:33;;;;;;;6.35;2.38;;;18.50;99.90;;;;;;5056159;28;20407;-74
2022/07/31 01:50:01;;;;;;;3.08;2.15;;;18.50;99.90;;;;;;5059909;28;20044;-74
2022/07/31 01:52:28;;;;;;;5.22;2.40;;;18.40;99.90;;;;;;5058314;28;21486;-73
2022/07/31 01:54:57;;;;;;;13.70;3.35;;;18.50;99.90;;;;;;5071258;28;20082;-72
2022/07/31 01:57:25;;;;;;;6.18;2.70;;;18.40;99.90;;;;;;5055931;28;20096;-72
2022/07/31 01:59:55;;;;;;;8.60;2.38;;;18.40;99.90;;;;;;5057495;28;20072;-75
2022/07/31 02:02:22;;;;;;;7.13;2.35;;;18.40;99.90;;;;;;5077702;28;20353;-74
2022/07/31 02:04:48;;;;;;;7.28;2.28;;;18.40;99.90;;;;;;5087467;28;20051;-73
2022/07/31 02:07:15;;;;;;;10.63;2.45;;;18.40;99.90;;;;;;5048634;28;20063;-72
2022/07/31 02:09:43;;;;;;;5.60;2.28;;;18.40;99.90;;;;;;5068640;28;20412;-72
2022/07/31 02:12:10;;;;;;;6.70;2.50;;;18.50;99.90;;;;;;5069158;28;20035;-73
2022/07/31 02:14:41;;;;;;;4.47;2.42;;;18.40;99.90;;;;;;5088640;28;20097;-73
2022/07/31 02:17:08;;;;;;;5.40;3.05;;;18.40;99.90;;;;;;5070254;28;20052;-74
2022/07/31 02:19:38;;;;;;;6.22;2.90;;;18.40;99.90;;;;;;5068734;28;20055;-72
2022/07/31 02:22:03;;;;;;;6.10;2.60;;;18.40;99.90;;;;;;5070439;28;20087;-75
2022/07/31 02:24:29;;;;;;;5.07;2.60;;;18.40;99.90;;;;;;5077856;28;20543;-72
2022/07/31 02:26:57;;;;;;;8.32;3.22;;;18.40;99.90;;;;;;5073874;28;20040;-73
2022/07/31 02:29:25;;;;;;;6.03;2.92;;;18.40;99.90;;;;;;5071835;28;20039;-72
2022/07/31 02:31:55;;;;;;;5.50;2.72;;;18.30;99.90;;;;;;5070596;28;20047;-73
2022/07/31 02:34:23;;;;;;;9.55;3.00;;;18.30;99.90;;;;;;5070359;28;20044;-74
2022/07/31 02:36:52;;;;;;;7.10;2.80;;;18.30;99.90;;;;;;5065766;28;20070;-74
2022/07/31 02:39:19;;;;;;;6.45;2.70;;;18.30;99.90;;;;;;5066426;28;20394;-72
2022/07/31 02:41:46;;;;;;;5.63;2.53;;;18.30;99.90;;;;;;5087297;28;20113;-74
2022/07/31 02:44:13;;;;;;;3.55;2.60;;;18.30;99.90;;;;;;5073991;28;20043;-75
2022/07/31 02:46:41;;;;;;;5.85;2.85;;;18.30;99.90;;;;;;5070060;28;20044;-72
2022/07/31 02:49:07;;;;;;;7.75;3.05;;;18.30;99.90;;;;;;5074082;28;20063;-74
2022/07/31 02:51:33;;;;;;;7.00;2.80;;;18.30;99.90;;;;;;5084232;28;20399;-72
2022/07/31 02:53:59;;;;;;;5.72;2.58;;;18.30;99.90;;;;;;5070030;28;20109;-74
2022/07/31 02:56:27;;;;;;;7.03;2.78;;;18.30;99.90;;;;;;5066417;28;20070;-71
2022/07/31 02:58:52;;;;;;;6.95;2.70;;;18.30;99.90;;;;;;5067245;28;20060;-74
2022/07/31 03:01:18;;;;;;;3.78;2.50;;;18.30;99.90;;;;;;5054255;28;20098;-74
2022/07/31 03:03:43;;;;;;;6.47;2.67;;;18.20;99.90;;;;;;5074477;28;20090;-73
2022/07/31 03:06:09;;;;;;;3.40;2.17;;;18.20;99.90;;;;;;5066113;28;20044;-70
2022/07/31 03:08:35;;;;;;;6.78;2.60;;;18.30;99.90;;;;;;5077353;28;20036;-72
2022/07/31 03:11:02;;;;;;;5.05;2.60;;;18.30;99.90;;;;;;5070807;28;20044;-72
2022/07/31 03:13:30;;;;;;;6.20;2.55;;;18.20;99.90;;;;;;5084241;28;20456;-72
2022/07/31 03:15:57;;;;;;;5.07;2.72;;;18.20;99.90;;;;;;5068600;28;20854;-74
2022/07/31 03:18:24;;;;;;;7.72;2.63;;;18.20;99.90;;;;;;5069843;28;20068;-74
2022/07/31 03:20:50;;;;;;;6.97;2.63;;;18.20;99.90;;;;;;5069735;28;20044;-73
2022/07/31 03:23:19;;;;;;;4.65;2.60;;;18.20;99.90;;;;;;5074107;28;20064;-72
2022/07/31 03:25:50;;;;;;;7.40;2.78;;;18.20;99.90;;;;;;5087927;28;20089;-74
2022/07/31 03:28:18;;;;;;;5.68;2.50;;;18.20;99.90;;;;;;5065780;28;20127;-73
2022/07/31 03:30:45;;;;;;;8.15;2.58;;;18.10;99.90;;;;;;5068478;28;20050;-72
2022/07/31 03:33:10;;;;;;;4.85;2.70;;;18.10;99.90;;;;;;5064193;28;20044;-73
2022/07/31 03:35:36;;;;;;;5.75;2.53;;;18.10;99.90;;;;;;5064822;28;20151;-74
2022/07/31 03:38:03;;;;;;;4.05;2.45;;;18.00;99.90;;;;;;5072534;28;20036;-76
2022/07/31 03:40:30;;;;;;;6.15;2.30;;;18.00;99.90;;;;;;5069865;28;20447;-74
2022/07/31 03:42:57;;;;;;;5.10;2.58;;;18.00;99.90;;;;;;5067697;28;20150;-75
2022/07/31 03:45:25;;;;;;;4.07;2.17;;;17.90;99.90;;;;;;5057027;28;20426;-72
2022/07/31 03:47:51;;;;;;;5.88;2.47;;;17.90;99.90;;;;;;5069680;28;20047;-72
2022/07/31 03:50:17;;;;;;;5.70;2.42;;;17.90;99.90;;;;;;5070623;28;20044;-72
2022/07/31 03:52:45;;;;;;;5.65;2.65;;;17.90;99.90;;;;;;5071042;28;20066;-73
2022/07/31 03:55:14;;;;;;;3.20;2.10;;;17.80;99.90;;;;;;5064946;28;20043;-72
2022/07/31 03:57:41;;;;;;;4.80;2.47;;;17.80;99.90;;;;;;5066981;28;20455;-72
2022/07/31 04:00:08;;;;;;;8.38;2.50;;;17.80;99.90;;;;;;5052080;28;20502;-72
2022/07/31 04:02:34;;;;;;;4.18;2.50;;;17.80;99.90;;;;;;5070601;28;20052;-71
2022/07/31 04:05:00;;;;;;;4.07;2.20;;;17.80;99.90;;;;;;5052457;28;20096;-73
2022/07/31 04:07:26;;;;;;;7.53;2.50;;;17.80;99.90;;;;;;5060378;28;20066;-73
2022/07/31 04:09:52;;;;;;;8.95;2.70;;;17.80;99.90;;;;;;5063840;28;20155;-73
2022/07/31 04:12:18;;;;;;;6.35;2.60;;;17.80;99.90;;;;;;5064641;28;20082;-72
2022/07/31 04:14:43;;;;;;;6.70;2.63;;;17.70;99.90;;;;;;5063776;28;20122;-74
2022/07/31 04:17:09;;;;;;;3.90;2.60;;;17.70;99.90;;;;;;5063911;28;20041;-73
2022/07/31 04:19:35;;;;;;;7.78;2.50;;;17.70;99.90;;;;;;5048044;28;20051;-73
2022/07/31 04:22:03;;;;;;;6.25;2.90;;;17.70;99.90;;;;;;5062953;28;20039;-73
2022/07/31 04:24:28;;;;;;;10.57;2.50;;;17.70;99.90;;;;;;5062918;28;20071;-75
2022/07/31 04:26:55;;;;;;;6.32;3.28;;;17.80;99.90;;;;;;5048775;28;20574;-74
2022/07/31 04:29:21;;;;;;;11.27;2.90;;;17.80;99.90;;;;;;5049794;28;20762;-71
2022/07/31 04:31:47;;;;;;;6.00;2.95;;;17.90;99.90;;;;;;5062337;28;20040;-74
2022/07/31 04:34:12;;;;;;;4.75;2.60;;;17.90;99.90;;;;;;5068178;28;20043;-75
2022/07/31 04:36:38;;;;;;;5.68;2.75;;;17.90;99.90;;;;;;5061153;28;20043;-75
2022/07/31 04:39:05;;;;;;;7.50;2.90;;;18.00;99.90;;;;;;5064699;28;20119;-72
2022/07/31 04:41:32;;;;;;;5.75;2.65;;;18.00;99.90;;;;;;5062183;28;20143;-72
2022/07/31 04:43:58;;;;;;;6.78;2.80;;;18.00;99.90;;;;;;5066890;28;20040;-72
2022/07/31 04:46:24;;;;;;;6.25;2.65;;;18.00;99.90;;;;;;5051493;28;20131;-74
2022/07/31 04:48:50;;;;;;;4.25;2.40;;;18.00;99.90;;;;;;5068035;28;20039;-74
2022/07/31 04:51:20;;;;;;;5.53;2.80;;;18.10;99.90;;;;;;5066275;28;20036;-75
2022/07/31 04:53:46;;;;;;;3.95;2.80;;;18.10;99.90;;;;;;5049997;28;20066;-72
2022/07/31 04:58:57;;;;;;;3.92;2.67;;;18.10;99.90;;;;;;5064274;28;20087;-73
2022/07/31 05:01:23;;;;;;;10.63;2.85;;;18.10;99.90;;;;;;5045372;28;20067;-74
2022/07/31 05:03:49;;;;;;;6.57;2.92;;;18.20;99.90;;;;;;5063477;28;20052;-74
2022/07/31 05:06:14;;;;;;;4.55;2.75;;;18.20;99.90;;;;;;5063182;28;20038;-72
2022/07/31 05:08:40;;;;;;;7.97;2.80;;;18.30;99.90;;;;;;5053384;28;20036;-73
2022/07/31 05:11:24;;;;;;;7.15;2.65;;;18.20;99.90;;;;;;5072796;28;20127;-72
2022/07/31 05:13:55;;;;;;;3.92;2.60;;;18.30;99.90;;;;;;5067384;28;20078;-70
2022/07/31 05:16:21;;;;;;;4.53;2.80;;;18.30;99.90;;;;;;5064162;28;20040;-76
2022/07/31 05:18:47;;;;;;;6.55;3.10;;;18.40;99.90;;;;;;5065803;28;20450;-74
2022/07/31 05:21:17;;;;;;;6.40;2.70;;;18.40;99.90;;;;;;5061233;28;20040;-74
2022/07/31 05:23:44;;;;;;;4.30;3.05;;;18.50;99.90;;;;;;5046520;28;20044;-75
2022/07/31 05:26:10;;;;;;;7.65;3.25;;;18.50;99.90;;;;;;5040707;28;20116;-74
2022/07/31 05:28:37;;;;;;;6.07;3.08;;;18.50;99.90;;;;;;5061287;28;20044;-74
2022/07/31 05:31:04;;;;;;;5.97;3.10;;;18.50;99.90;;;;;;5061438;28;20032;-74
2022/07/31 05:33:29;;;;;;;10.90;3.10;;;18.60;99.90;;;;;;5064054;28;20040;-72
2022/07/31 05:35:56;;;;;;;8.73;3.10;;;18.70;99.90;;;;;;5058634;28;21984;-73
2022/07/31 05:38:21;;;;;;;6.00;3.40;;;18.70;99.90;;;;;;5049619;28;20130;-72
2022/07/31 05:40:47;;;;;;;4.32;2.72;;;18.70;99.90;;;;;;5064467;28;20547;-73
2022/07/31 05:43:12;;;;;;;8.57;3.60;;;18.80;99.90;;;;;;5050001;28;20169;-71
2022/07/31 05:45:38;;;;;;;6.85;3.17;;;18.80;99.90;;;;;;5067127;28;20131;-75
2022/07/31 05:48:04;;;;;;;6.78;3.50;;;18.80;99.90;;;;;;5068633;28;20344;-73
2022/07/31 05:50:30;;;;;;;6.70;3.45;;;18.80;99.90;;;;;;5070099;28;20398;-74
2022/07/31 05:52:56;;;;;;;7.55;3.30;;;18.90;99.90;;;;;;5063344;28;20436;-73
2022/07/31 05:55:21;;;;;;;4.95;3.30;;;18.90;99.90;;;;;;5063479;28;20035;-74
2022/07/31 05:57:47;;;;;;;5.25;3.13;;;19.00;99.90;;;;;;5064601;28;20036;-74
2022/07/31 06:00:15;;;;;;;8.55;3.50;;;19.00;99.90;;;;;;5065183;28;20036;-72
2022/07/31 06:02:41;;;;;;;9.48;3.50;;;19.10;99.90;;;;;;5064204;28;20109;-71
2022/07/31 06:05:07;;;;;;;5.20;3.17;;;19.20;99.90;;;;;;5049079;28;20036;-73
2022/07/31 06:07:32;;;;;;;8.50;3.20;;;19.30;99.90;;;;;;5060641;28;20036;-73
2022/07/31 06:09:58;;;;;;;6.60;3.78;;;19.40;99.90;;;;;;5049333;28;20070;-74
2022/07/31 06:12:27;;;;;;;11.93;3.80;;;19.40;99.90;;;;;;5042445;28;20047;-75
2022/07/31 06:14:52;;;;;;;5.35;3.47;;;19.50;99.90;;;;;;5059062;28;20080;-75
2022/07/31 06:17:18;;;;;;;4.90;3.38;;;19.60;99.90;;;;;;5061228;28;20082;-74
2022/07/31 06:19:44;;;;;;;5.75;3.22;;;19.60;99.90;;;;;;5064678;28;20132;-76
2022/07/31 06:22:10;;;;;;;6.82;3.13;;;19.70;99.90;;;;;;5061542;28;20044;-74
2022/07/31 06:24:36;;;;;;;7.45;3.42;;;19.80;99.90;;;;;;5063611;28;20390;-74
2022/07/31 06:27:02;;;;;;;8.27;3.75;;;19.90;99.90;;;;;;5059279;28;20067;-75
2022/07/31 06:29:29;;;;;;;6.40;3.72;;;20.00;99.90;;;;;;5062859;28;20043;-74
2022/07/31 06:31:55;;;;;;;8.75;3.58;;;20.00;99.90;;;;;;5062731;28;20058;-72
2022/07/31 06:38:02;;;;;;;8.80;3.47;;;20.20;99.90;;;;;;5077967;28;20430;-75
2022/07/31 06:40:28;;;;;;;8.35;3.72;;;20.40;99.90;;;;;;5077940;28;20032;-73
2022/07/31 06:42:54;;;;;;;5.88;3.72;;;20.50;99.90;;;;;;5041572;28;20144;-73
2022/07/31 06:45:19;;;;;;;7.47;3.95;;;20.60;99.90;;;;;;5078671;28;20046;-74
2022/07/31 06:47:45;;;;;;;9.27;3.47;;;20.60;99.90;;;;;;5064114;28;20493;-72
2022/07/31 06:50:11;;;;;;;6.20;3.83;;;20.70;99.90;;;;;;5049332;28;21660;-74
2022/07/31 06:52:37;;;;;;;10.70;3.50;;;20.80;99.90;;;;;;5083697;28;20040;-73
2022/07/31 06:55:03;;;;;;;7.63;3.70;;;20.80;99.90;;;;;;5064445;28;20528;-73
2022/07/31 06:57:29;;;;;;;8.50;4.00;;;20.80;99.90;;;;;;5067392;28;20055;-73
2022/07/31 06:59:54;;;;;;;5.28;3.47;;;20.80;99.90;;;;;;5068095;28;20376;-73
2022/07/31 07:02:20;;;;;;;6.25;3.70;;;20.90;99.90;;;;;;5082199;28;20056;-75
2022/07/31 07:04:46;;;;;;;8.57;3.75;;;21.00;99.90;;;;;;5061392;28;20052;-72
2022/07/31 07:07:12;;;;;;;6.15;2.92;;;21.10;99.90;;;;;;5066975;28;20124;-75
2022/07/31 07:09:37;;;;;;;7.00;2.90;;;21.20;99.90;;;;;;5048998;28;20039;-75
2022/07/31 07:12:03;;;;;;;13.23;4.00;;;21.20;99.90;;;;;;5045594;28;20040;-74
2022/07/31 07:14:29;;;;;;;5.72;3.78;;;21.30;99.90;;;;;;5064509;28;20112;-73
2022/07/31 07:16:54;;;;;;;9.52;3.92;;;21.20;99.90;;;;;;5078471;28;20040;-75
2022/07/31 07:19:20;;;;;;;7.32;3.47;;;21.30;99.90;;;;;;5061266;28;20032;-74
2022/07/31 07:21:46;;;;;;;7.80;3.50;;;21.30;99.90;;;;;;5060984;28;20353;-75
2022/07/31 07:24:11;;;;;;;6.45;3.42;;;21.30;99.90;;;;;;5060174;28;20040;-76
2022/07/31 07:26:37;;;;;;;12.13;3.85;;;21.30;99.90;;;;;;5050258;28;20417;-74
2022/07/31 07:29:03;;;;;;;9.35;3.40;;;21.40;99.90;;;;;;5059902;28;20137;-75
2022/07/31 07:31:29;;;;;;;5.30;3.05;;;21.60;99.90;;;;;;5066506;28;20051;-75
2022/07/31 07:33:55;;;;;;;5.55;3.33;;;21.70;99.90;;;;;;5067694;28;20058;-74
2022/07/31 07:36:21;;;;;;;8.82;3.50;;;21.80;99.90;;;;;;5067596;28;20819;-73
2022/07/31 07:38:47;;;;;;;6.70;2.92;;;21.80;99.90;;;;;;5066321;28;20045;-73
2022/07/31 07:41:12;;;;;;;7.97;3.05;;;21.90;99.90;;;;;;5064799;28;20054;-72
2022/07/31 07:43:38;;;;;;;5.38;3.10;;;21.90;99.90;;;;;;5067053;28;20052;-74
2022/07/31 07:46:04;;;;;;;5.47;3.05;;;22.00;99.90;;;;;;5066696;28;20032;-75
2022/07/31 07:48:29;;;;;;;10.57;4.03;;;22.10;99.90;;;;;;5061865;28;20028;-73
2022/07/31 07:50:55;;;;;;;7.03;4.10;;;22.20;99.90;;;;;;5063211;28;20055;-74
2022/07/31 07:53:21;;;;;;;6.30;3.90;;;22.40;99.90;;;;;;5047036;28;20052;-73
2022/07/31 07:55:46;;;;;;;8.40;3.95;;;22.50;99.90;;;;;;5054863;28;20376;-77
2022/07/31 07:58:12;;;;;;;9.75;3.85;;;22.50;99.90;;;;;;5042211;28;20155;-74
2022/07/31 08:00:39;;;;;;;8.63;3.92;;;22.70;99.90;;;;;;5066574;28;20058;-74
2022/07/31 08:03:05;;;;;;;10.48;4.40;;;22.80;99.90;;;;;;5070948;28;20124;-74
2022/07/31 08:05:31;;;;;;;9.48;4.20;;;22.80;99.90;;;;;;5071034;28;20040;-75
2022/07/31 08:07:58;;;;;;;10.85;4.30;;;22.80;99.90;;;;;;5053915;28;20064;-75
2022/07/31 08:10:24;;;;;;;7.32;4.30;;;22.90;99.90;;;;;;5069732;28;20124;-75
2022/07/31 08:12:53;;;;;;;7.25;4.50;;;22.90;99.90;;;;;;5045148;28;20194;-75
2022/07/31 08:15:19;;;;;;;8.88;4.57;;;22.90;99.90;;;;;;5054525;28;20048;-75
2022/07/31 08:17:44;;;;;;;6.78;4.32;;;22.80;99.90;;;;;;5067887;28;20047;-75
2022/07/31 08:20:10;;;;;;;11.25;4.22;;;22.80;99.90;;;;;;5065430;28;20048;-74
2022/07/31 08:22:36;;;;;;;10.43;4.53;;;22.90;99.90;;;;;;5066028;28;20052;-75
2022/07/31 08:25:03;;;;;;;10.93;4.30;;;22.90;99.90;;;;;;5067217;28;20040;-73
2022/07/31 08:27:29;;;;;;;7.60;4.40;;;22.80;99.90;;;;;;5071352;28;20170;-74
2022/07/31 08:29:58;;;;;;;10.43;4.07;;;22.80;99.90;;;;;;5065823;28;20041;-75
2022/07/31 08:32:26;;;;;;;6.90;4.22;;;22.70;99.90;;;;;;5066072;28;20068;-74
2022/07/31 08:34:52;;;;;;;8.15;3.80;;;22.80;99.90;;;;;;5050182;28;20052;-75
2022/07/31 08:37:18;;;;;;;8.95;4.00;;;22.90;99.90;;;;;;5051828;28;20479;-75
2022/07/31 08:39:45;;;;;;;9.27;4.25;;;22.90;99.90;;;;;;5050926;28;20541;-75
2022/07/31 08:42:11;;;;;;;9.27;4.32;;;22.90;99.90;;;;;;5055305;28;20520;-76
2022/07/31 08:44:41;;;;;;;7.53;4.68;;;22.70;99.90;;;;;;5053354;28;20072;-74
2022/07/31 08:47:08;;;;;;;13.88;4.75;;;22.60;99.90;;;;;;5052031;28;20472;-74
2022/07/31 08:49:46;;;;;;;12.05;4.80;;;22.60;99.90;;;;;;5063768;28;20094;-74
2022/07/31 08:52:22;;;;;;;10.35;5.07;;;22.60;99.90;;;;;;5052474;28;20457;-74
2022/07/31 08:54:51;;;;;;;10.20;5.28;;;22.50;99.90;;;;;;5070986;28;20048;-74
2022/07/31 08:57:17;;;;;;;8.95;5.65;;;22.40;99.90;;;;;;5052400;28;20086;-74
2022/07/31 08:59:43;;;;;;;10.13;6.25;;;22.30;99.90;;;;;;5051370;28;20729;-74
2022/07/31 09:02:10;;;;;;;9.93;6.03;;;22.20;99.90;;;;;;5068487;28;20113;-73
2022/07/31 09:04:36;;;;;;;12.52;6.18;;;22.10;99.90;;;;;;5058585;28;20095;-74
2022/07/31 09:07:09;;;;;;;15.50;6.97;;;22.00;99.90;;;;;;5050239;28;20112;-75
2022/07/31 09:09:34;;;;;;;13.30;6.85;;;22.00;99.90;;;;;;5061738;28;20081;-74
2022/07/31 09:12:00;;;;;;;11.35;7.43;;;21.90;99.90;;;;;;5040104;28;20076;-73
2022/07/31 09:14:33;;;;;;;12.00;7.07;;;21.80;99.90;;;;;;5040672;28;20048;-74
2022/07/31 09:17:00;;;;;;;13.18;7.38;;;21.60;99.90;;;;;;5012222;28;20052;-76
2022/07/31 09:19:38;;;;;;;15.63;8.10;;;21.50;99.90;;;;;;5045185;28;20036;-76
2022/07/31 09:22:04;;;;;;;;;;;21.40;99.90;;;;;;5027952;28;20055;-73
2022/07/31 09:24:33;;;;;;;15.15;8.70;;;21.40;99.90;;;;;;5026050;28;19920;-74
2022/07/31 09:27:06;;;;;;;15.00;9.73;;;21.30;99.90;;;;;;5037814;28;20041;-75
2022/07/31 09:29:37;;;;;;;16.98;9.70;;;21.30;99.90;;;;;;5023299;28;20202;-73
2022/07/31 09:32:10;;;;;;;14.38;9.23;;;21.30;99.90;;;;;;5043418;28;20045;-75
2022/07/31 09:34:35;;;;;;;14.95;9.38;;;21.30;99.90;;;;;;5023157;28;20068;-73
2022/07/31 09:37:11;;;;;;;15.82;9.02;;;21.30;99.90;;;;;;5029359;28;20459;-73
2022/07/31 09:39:37;;;;;;;16.77;10.13;;;21.30;99.90;;;;;;5019879;28;20087;-73
2022/07/31 09:42:04;;;;;;;15.63;9.90;;;21.30;99.90;;;;;;5036319;28;20123;-72
2022/07/31 09:44:42;;;;;;;14.75;9.40;;;21.30;99.90;;;;;;5041186;28;20496;-73
2022/07/31 09:47:28;;;;;;;16.80;9.48;;;21.30;99.90;;;;;;5038162;28;20044;-74
2022/07/31 09:49:57;;;;;;;15.15;6.55;;;21.30;99.90;;;;;;5025664;28;20072;-74
2022/07/31 09:52:24;;;;;;;12.27;5.05;;;21.50;99.90;;;;;;5020364;28;20049;-75
2022/07/31 09:55:14;;;;;;;16.73;7.82;;;21.60;99.90;;;;;;5042540;28;20456;-74
2022/07/31 09:57:54;;;;;;;15.45;8.23;;;21.60;99.90;;;;;;5044793;28;20053;-73
2022/07/31 10:00:20;;;;;;;14.88;8.88;;;21.60;99.90;;;;;;5042235;28;20053;-72
2022/07/31 10:02:47;;;;;;;16.77;9.43;;;21.60;99.90;;;;;;5053266;28;20059;-75
2022/07/31 10:05:14;;;;;;;10.35;6.35;;;21.50;99.90;;;;;;5054349;28;20056;-73
2022/07/31 10:07:41;;;;;;;13.43;8.45;;;21.60;99.90;;;;;;5054757;28;20047;-75
2022/07/31 10:10:08;;;;;;;12.70;8.20;;;21.70;99.90;;;;;;5051074;28;20052;-73
2022/07/31 10:12:39;;;;;;;13.05;7.72;;;21.70;99.90;;;;;;5054295;28;20487;-75
2022/07/31 10:15:08;;;;;;;19.23;7.57;;;21.80;99.90;;;;;;5074123;28;20052;-75
2022/07/31 10:17:38;;;;;;;12.88;8.77;;;21.80;99.90;;;;;;5058522;28;20163;-72
2022/07/31 10:20:06;;;;;;;15.30;8.13;;;21.80;99.90;;;;;;5054941;28;20051;-76
2022/07/31 10:22:42;;;;;;;15.05;7.57;;;21.80;99.90;;;;;;5058045;28;20496;-72
2022/07/31 10:25:12;;;;;;;13.05;8.10;;;21.70;99.90;;;;;;5056499;28;20056;-75
2022/07/31 10:27:39;;;;;;;12.05;8.38;;;21.80;99.90;;;;;;5083096;28;20048;-75
2022/07/31 10:30:06;;;;;;;14.02;8.82;;;21.90;99.90;;;;;;5062957;28;20170;-75
2022/07/31 10:32:32;;;;;;;13.00;8.25;;;21.80;99.90;;;;;;5058666;28;20052;-76
2022/07/31 10:34:59;;;;;;;12.65;7.05;;;21.70;99.90;;;;;;5060949;28;20067;-73
2022/07/31 10:37:33;;;;;;;9.30;5.78;;;21.60;99.90;;;;;;5062584;28;20048;-72
2022/07/31 10:40:22;;;;;;;;;;;21.50;99.90;;;;;;5050311;28;20091;-72
2022/07/31 10:42:47;;;;;;;16.45;8.23;;;21.50;99.90;;;;;;5061539;28;21682;-73
2022/07/31 10:45:16;;;;;;;16.73;8.38;;;21.40;99.90;;;;;;5057767;28;20033;-73
2022/07/31 10:47:56;;;;;;;9.13;5.97;;;21.40;99.90;;;;;;5057436;28;20060;-73
2022/07/31 10:50:23;;;;;;;11.70;7.38;;;21.40;99.90;;;;;;5063464;28;20110;-74
2022/07/31 10:52:49;;;;;;;12.75;7.82;;;21.40;99.90;;;;;;5059698;28;20048;-72
2022/07/31 10:55:17;;;;;;;13.68;8.02;;;21.30;99.90;;;;;;5056045;28;20090;-74
2022/07/31 10:57:43;;;;;;;11.27;7.80;;;21.30;99.90;;;;;;5056710;28;20045;-73
2022/07/31 11:00:21;;;;;;;12.57;8.77;;;21.30;99.90;;;;;;5057312;28;20515;-74
2022/07/31 11:02:47;;;;;;;11.93;6.75;;;21.30;99.90;;;;;;5056153;28;20121;-75
2022/07/31 11:05:22;;;;;;;12.23;7.95;;;21.30;99.90;;;;;;5061457;28;20056;-75
2022/07/31 11:07:59;;;;;;;12.68;9.20;;;21.20;99.90;;;;;;5041956;28;20094;-70
2022/07/31 11:10:25;;;;;;;12.50;8.18;;;21.20;99.90;;;;;;5056790;28;20064;-74
2022/07/31 11:13:05;;;;;;;12.63;8.10;;;21.10;99.90;;;;;;5058089;28;20051;-70
2022/07/31 11:15:36;;;;;;;13.10;7.20;;;21.20;99.90;;;;;;5057110;28;20049;-74
2022/07/31 11:18:16;;;;;;;11.45;8.82;;;21.30;99.90;;;;;;5056079;28;20049;-75
2022/07/31 11:20:45;;;;;;;14.23;7.50;;;21.30;99.90;;;;;;5041938;28;20044;-76
2022/07/31 11:23:14;;;;;;;12.40;8.55;;;21.30;99.90;;;;;;5040562;28;20053;-74
2022/07/31 11:25:40;;;;;;;12.57;7.22;;;21.20;99.90;;;;;;5057717;28;20083;-74
2022/07/31 11:28:14;;;;;;;11.65;9.10;;;21.10;99.90;;;;;;5061000;28;20045;-74
2022/07/31 11:30:53;;;;;;;11.18;7.70;;;21.10;99.90;;;;;;5062023;28;20045;-75
2022/07/31 11:33:27;;;;;;;13.10;9.30;;;21.00;99.90;;;;;;5058090;28;20063;-74
2022/07/31 11:35:53;;;;;;;10.57;8.20;;;21.00;99.90;;;;;;5075140;28;20072;-72
2022/07/31 11:38:26;;;;;;;17.27;11.00;;;21.00;99.90;;;;;;5060066;28;21538;-74
2022/07/31 11:40:52;;;;;;;14.48;10.30;;;20.90;99.90;;;;;;5038891;28;20118;-72
2022/07/31 11:43:17;;;;;;;13.57;7.40;;;20.90;99.90;;;;;;5062307;28;20048;-70
2022/07/31 11:45:48;;;;;;;15.30;9.05;;;20.90;99.90;;;;;;5056191;28;20053;-73
2022/07/31 11:48:15;;;;;;;11.43;9.25;;;20.90;99.90;;;;;;5057461;28;20180;-75
2022/07/31 11:50:42;;;;;;;10.05;7.93;;;20.90;99.90;;;;;;5066639;28;20121;-76
2022/07/31 11:53:07;;;;;;;14.57;8.50;;;20.90;99.90;;;;;;5066374;28;20143;-73
2022/07/31 11:55:53;;;;;;;10.95;7.72;;;20.80;99.90;;;;;;5063317;28;20457;-74
2022/07/31 11:58:20;;;;;;;13.52;8.32;;;20.80;99.90;;;;;;5064139;28;20131;-72
2022/07/31 12:00:57;;;;;;;15.93;8.13;;;20.60;99.90;;;;;;5062389;28;20048;-74
2022/07/31 12:03:27;;;;;;;13.43;7.15;;;20.70;99.90;;;;;;5045214;28;20048;-74
2022/07/31 12:05:53;;;;;;;11.05;8.40;;;20.60;99.90;;;;;;5039737;28;20107;-73
2022/07/31 12:08:20;;;;;;;10.43;7.32;;;20.60;99.90;;;;;;5026839;28;20563;-73
2022/07/31 12:10:46;;;;;;;10.45;7.60;;;20.60;99.90;;;;;;5040060;28;20418;-71
2022/07/31 12:13:17;;;;;;;11.65;8.05;;;20.70;99.90;;;;;;5054260;28;20056;-70
2022/07/31 12:15:58;;;;;;;15.00;9.75;;;20.60;99.90;;;;;;5047097;28;20463;-72
2022/07/31 12:18:24;;;;;;;13.48;10.68;;;20.60;99.90;;;;;;5024020;28;20915;-70
2022/07/31 12:21:08;;;;;;;12.15;9.23;;;20.60;99.90;;;;;;5030463;28;20052;-72
2022/07/31 12:23:45;;;;;;;13.20;9.57;;;20.60;99.90;;;;;;5050252;28;20049;-74
2022/07/31 12:26:20;;;;;;;12.30;8.98;;;20.50;99.90;;;;;;5047503;28;20052;-75
2022/07/31 12:28:56;;;;;;;10.35;8.65;;;20.50;99.90;;;;;;5034066;28;20069;-74
2022/07/31 12:31:22;;;;;;;7.80;6.65;;;20.50;99.90;;;;;;5025559;28;20063;-73
2022/07/31 12:33:47;;;;;;;8.75;7.45;;;20.50;99.90;;;;;;5040294;28;20957;-73
2022/07/31 12:36:15;;;;;;;11.32;8.48;;;20.50;99.90;;;;;;5024509;28;20053;-73
2022/07/31 12:38:42;;;;;;;8.30;6.82;;;20.40;99.90;;;;;;5054858;28;20120;-74
2022/07/31 12:41:08;;;;;;;9.00;6.95;;;20.50;99.90;;;;;;5036306;28;20131;-75
2022/07/31 12:43:34;;;;;;;9.90;8.05;;;20.50;99.90;;;;;;5023578;28;20127;-73
2022/07/31 12:46:03;;;;;;;12.88;9.13;;;20.50;99.90;;;;;;5037830;28;20084;-76
2022/07/31 12:48:30;;;;;;;9.68;7.50;;;20.50;99.90;;;;;;5039776;28;20052;-71
2022/07/31 12:51:00;;;;;;;11.30;7.85;;;20.50;99.90;;;;;;5041038;28;20468;-77
2022/07/31 12:53:29;;;;;;;7.18;6.43;;;20.50;99.90;;;;;;5025751;28;20063;-73
2022/07/31 12:55:55;;;;;;;10.25;8.35;;;20.50;99.90;;;;;;5038628;28;20534;-74